createdAt,value
2018-01-27T00:01:55.213Z,53.67
2018-01-27T00:04:23.047Z,51.97
2018-01-27T00:06:51.690Z,54.10
2018-01-27T00:09:19.646Z,49.53
2018-01-27T00:11:47.459Z,54.57
2018-01-27T00:14:16.174Z,55.47
2018-01-27T00:16:44.036Z,55.40
2018-01-27T00:19:11.928Z,55.50
2018-01-27T00:21:39.816Z,53.73
2018-01-27T00:24:07.738Z,55.77
2018-01-27T00:26:35.617Z,51.80
2018-01-27T00:29:03.275Z,53.20
2018-01-27T00:31:30.946Z,55.17
2018-01-27T00:33:58.598Z,52.13
2018-01-27T00:36:26.252Z,53.97
2018-01-27T00:38:53.936Z,51.10
2018-01-27T00:41:21.626Z,52.50
2018-01-27T00:43:49.286Z,52.13
2018-01-27T00:46:16.978Z,53.33
2018-01-27T00:48:44.647Z,56.07
2018-01-27T00:51:12.529Z,53.97
2018-01-27T00:53:40.171Z,52.80
2018-01-27T00:56:07.861Z,54.20
2018-01-27T00:58:35.550Z,52.47
2018-01-27T01:01:03.196Z,52.73
2018-01-27T01:03:30.875Z,55.60
2018-01-27T01:05:58.571Z,52.37
2018-01-27T01:08:26.297Z,53.10
2018-01-27T01:10:54.020Z,54.57
2018-01-27T01:13:21.713Z,51.80
2018-01-27T01:15:49.369Z,55.00
2018-01-27T01:18:17.117Z,52.57
2018-01-27T01:20:44.906Z,52.67
2018-01-27T01:23:12.541Z,53.83
2018-01-27T01:25:40.205Z,51.23
2018-01-27T01:28:07.852Z,52.33
2018-01-27T01:30:35.575Z,53.93
2018-01-27T01:33:04.026Z,52.40
2018-01-27T01:35:31.725Z,52.90
2018-01-27T01:37:59.382Z,53.10
2018-01-27T01:40:27.077Z,50.80
2018-01-27T01:43:00.462Z,52.30
2018-01-27T01:45:28.113Z,55.03
2018-01-27T01:47:55.750Z,51.80
2018-01-27T01:50:24.157Z,53.27
2018-01-27T01:52:51.835Z,54.70
2018-01-27T01:55:19.466Z,54.73
2018-01-27T01:57:47.111Z,56.00
2018-01-27T02:00:15.528Z,52.40
2018-01-27T02:02:43.168Z,55.57
2018-01-27T02:05:10.805Z,54.83
2018-01-27T02:07:39.216Z,55.07
2018-01-27T02:10:06.866Z,53.13
2018-01-27T02:12:34.503Z,52.63
2018-01-27T02:15:02.905Z,50.40
2018-01-27T02:17:30.568Z,50.07
2018-01-27T02:19:58.231Z,48.53
2018-01-27T02:22:25.888Z,46.57
2018-01-27T02:24:53.526Z,44.00
2018-01-27T02:27:21.990Z,43.20
2018-01-27T02:29:49.667Z,41.87
2018-01-27T02:32:18.090Z,39.83
2018-01-27T02:34:45.741Z,37.23
2018-01-27T02:37:13.515Z,36.93
2018-01-27T02:39:41.168Z,38.57
2018-01-27T02:42:08.806Z,34.47
2018-01-27T02:44:36.457Z,35.20
2018-01-27T02:47:04.139Z,33.93
2018-01-27T02:49:31.794Z,34.57
2018-01-27T02:51:59.453Z,32.73
2018-01-27T02:54:27.171Z,31.07
2018-01-27T02:56:54.805Z,30.30
2018-01-27T02:59:23.213Z,29.33
2018-01-27T03:01:50.857Z,26.77
2018-01-27T03:04:18.520Z,24.10
2018-01-27T03:06:46.162Z,25.10
2018-01-27T03:09:13.804Z,22.67
2018-01-27T03:11:41.443Z,22.03
2018-01-27T03:14:09.147Z,19.97
2018-01-27T03:16:37.576Z,19.93
2018-01-27T03:19:05.980Z,19.77
2018-01-27T03:21:34.441Z,17.60
2018-01-27T03:24:02.169Z,18.67
2018-01-27T03:26:29.811Z,18.33
2018-01-27T03:28:57.474Z,17.43
2018-01-27T03:31:25.414Z,14.17
2018-01-27T03:33:53.071Z,15.03
2018-01-27T03:36:20.706Z,13.47
2018-01-27T03:38:49.146Z,13.37
2018-01-27T03:41:16.801Z,10.87
2018-01-27T03:43:44.454Z,10.47
2018-01-27T03:46:12.123Z,9.57
2018-01-27T03:48:39.771Z,9.40
2018-01-27T03:51:07.402Z,8.40
2018-01-27T03:53:35.055Z,7.30
2018-01-27T03:56:02.678Z,7.57
2018-01-27T03:58:30.311Z,8.00
2018-01-27T04:00:57.960Z,7.13
2018-01-27T04:03:25.600Z,6.80
2018-01-27T04:05:53.226Z,6.43
2018-01-27T04:08:21.662Z,6.00
2018-01-27T04:10:49.298Z,6.30
2018-01-27T04:13:17.090Z,6.50
2018-01-27T04:15:44.731Z,6.50
2018-01-27T04:18:12.380Z,6.90
2018-01-27T04:20:40.041Z,5.80
2018-01-27T04:23:07.703Z,6.73
2018-01-27T04:25:35.330Z,7.10
2018-01-27T04:28:02.958Z,5.90
2018-01-27T04:30:30.606Z,6.70
2018-01-27T04:32:58.253Z,6.53
2018-01-27T04:35:25.926Z,6.47
2018-01-27T04:37:53.560Z,6.23
2018-01-27T04:40:21.202Z,6.10
2018-01-27T04:42:49.674Z,6.63
2018-01-27T04:45:18.155Z,6.27
2018-01-27T04:47:46.552Z,6.73
2018-01-27T04:50:14.185Z,6.63
2018-01-27T04:52:41.823Z,6.00
2018-01-27T04:55:09.463Z,5.33
2018-01-27T04:57:37.119Z,5.80
2018-01-27T05:00:04.799Z,6.70
2018-01-27T05:02:32.440Z,5.97
2018-01-27T05:05:00.080Z,4.80
2018-01-27T05:07:27.732Z,5.83
2018-01-27T05:09:55.367Z,5.53
2018-01-27T05:12:23.033Z,5.37
2018-01-27T05:14:51.512Z,5.57
2018-01-27T05:17:19.914Z,5.37
2018-01-27T05:19:47.547Z,5.70
2018-01-27T05:22:15.184Z,5.40
2018-01-27T05:24:42.823Z,5.43
2018-01-27T05:27:10.505Z,4.93
2018-01-27T05:29:38.114Z,5.27
2018-01-27T05:32:05.748Z,5.03
2018-01-27T05:34:33.376Z,5.50
2018-01-27T05:37:01.027Z,4.87
2018-01-27T05:39:28.666Z,5.00
2018-01-27T05:41:56.299Z,4.33
2018-01-27T05:44:24.698Z,4.87
2018-01-27T05:46:52.338Z,4.30
2018-01-27T05:49:20.748Z,4.27
2018-01-27T05:51:48.409Z,4.50
2018-01-27T05:54:16.039Z,4.33
2018-01-27T05:56:44.431Z,4.97
2018-01-27T05:59:12.127Z,4.87
2018-01-27T06:01:39.786Z,5.77
2018-01-27T06:04:07.414Z,5.03
2018-01-27T06:06:35.068Z,4.40
2018-01-27T06:09:02.719Z,5.00
2018-01-27T06:11:31.142Z,4.70
2018-01-27T06:13:58.787Z,5.20
2018-01-27T06:16:26.435Z,4.23
2018-01-27T06:18:54.130Z,5.30
2018-01-27T06:21:21.820Z,4.67
2018-01-27T06:23:49.562Z,5.83
2018-01-27T06:26:17.975Z,6.03
2018-01-27T06:28:46.381Z,4.00
2018-01-27T06:31:14.050Z,4.50
2018-01-27T06:33:41.711Z,4.07
2018-01-27T06:36:09.354Z,3.50
2018-01-27T06:38:37.043Z,3.43
2018-01-27T06:41:04.678Z,3.40
2018-01-27T06:43:32.369Z,3.33
2018-01-27T06:46:00.024Z,3.87
2018-01-27T06:48:27.675Z,4.03
2018-01-27T06:50:55.437Z,3.90
2018-01-27T06:53:23.066Z,4.83
2018-01-27T06:55:51.620Z,3.90
2018-01-27T06:58:19.274Z,3.80
2018-01-27T07:00:46.903Z,4.43
2018-01-27T07:03:14.541Z,4.30
2018-01-27T07:05:42.198Z,3.53
2018-01-27T07:08:09.885Z,3.83
2018-01-27T07:10:37.554Z,3.77
2018-01-27T07:13:05.218Z,3.20
2018-01-27T07:15:32.858Z,3.83
2018-01-27T07:18:00.483Z,3.73
2018-01-27T07:20:28.961Z,3.47
2018-01-27T07:22:57.407Z,3.70
2018-01-27T07:25:25.070Z,3.50
2018-01-27T07:27:52.734Z,3.47
2018-01-27T07:30:20.454Z,3.50
2018-01-27T07:32:48.186Z,3.37
2018-01-27T07:35:16.675Z,3.23
2018-01-27T07:37:45.088Z,3.60
2018-01-27T07:40:12.735Z,2.90
2018-01-27T07:42:40.402Z,3.00
2018-01-27T07:45:08.044Z,3.10
2018-01-27T07:47:35.680Z,3.60
2018-01-27T07:50:04.111Z,3.83
2018-01-27T07:52:31.815Z,4.30
2018-01-27T07:54:59.537Z,4.20
2018-01-27T07:57:27.193Z,3.93
2018-01-27T07:59:55.032Z,4.03
2018-01-27T08:02:22.908Z,5.40
2018-01-27T08:04:50.560Z,4.43
2018-01-27T08:07:18.232Z,4.00
2018-01-27T08:09:45.940Z,3.20
2018-01-27T08:12:13.568Z,3.40
2018-01-27T08:14:41.255Z,3.60
2018-01-27T08:17:08.913Z,4.20
2018-01-27T08:19:36.661Z,3.77
2018-01-27T08:22:04.361Z,3.63
2018-01-27T08:24:32.762Z,3.83
2018-01-27T08:27:00.559Z,4.03
2018-01-27T08:29:28.225Z,3.57
2018-01-27T08:31:55.891Z,4.03
2018-01-27T08:34:23.526Z,4.33
2018-01-27T08:36:51.217Z,3.67
2018-01-27T08:39:18.885Z,4.10
2018-01-27T08:41:46.557Z,4.80
2018-01-27T08:44:14.255Z,5.13
2018-01-27T08:46:41.930Z,4.97
2018-01-27T08:49:09.613Z,3.70
2018-01-27T08:51:37.269Z,3.70
2018-01-27T08:54:04.980Z,3.57
2018-01-27T08:56:33.416Z,3.43
2018-01-27T08:59:01.175Z,3.47
2018-01-27T09:01:28.828Z,3.20
2018-01-27T09:03:56.512Z,3.50
2018-01-27T09:06:24.161Z,3.80
2018-01-27T09:08:51.900Z,3.17
2018-01-27T09:11:19.551Z,2.97
2018-01-27T09:13:47.390Z,3.10
2018-01-27T09:16:15.825Z,3.50
2018-01-27T09:18:43.468Z,3.50
2018-01-27T09:21:11.137Z,3.30
2018-01-27T09:23:38.776Z,3.70
2018-01-27T09:26:06.423Z,3.40
2018-01-27T09:28:34.125Z,3.77
2018-01-27T09:31:01.847Z,3.43
2018-01-27T09:33:29.498Z,3.70
2018-01-27T09:35:57.929Z,4.00
2018-01-27T09:38:25.770Z,4.83
2018-01-27T09:40:53.403Z,4.00
2018-01-27T09:43:21.825Z,4.60
2018-01-27T09:45:50.269Z,3.97
2018-01-27T09:48:17.933Z,3.97
2018-01-27T09:50:45.599Z,3.83
2018-01-27T09:53:13.261Z,3.90
2018-01-27T09:55:41.690Z,3.67
2018-01-27T09:58:09.350Z,4.00
2018-01-27T10:00:38.178Z,4.30
2018-01-27T10:03:05.858Z,4.63
2018-01-27T10:05:33.531Z,4.87
2018-01-27T10:08:01.211Z,4.70
2018-01-27T10:10:28.886Z,5.53
2018-01-27T10:12:56.536Z,6.30
2018-01-27T10:15:24.206Z,6.53
2018-01-27T10:17:51.942Z,7.40
2018-01-27T10:20:19.629Z,7.27
2018-01-27T10:22:47.314Z,7.90
2018-01-27T10:25:15.764Z,8.20
2018-01-27T10:27:43.450Z,9.57
2018-01-27T10:30:11.980Z,10.97
2018-01-27T10:32:39.651Z,11.60
2018-01-27T10:35:07.320Z,11.37
2018-01-27T10:37:35.094Z,10.53
2018-01-27T10:40:02.793Z,11.10
2018-01-27T10:42:30.515Z,12.17
2018-01-27T10:44:58.253Z,12.33
2018-01-27T10:47:25.941Z,12.43
2018-01-27T10:49:53.673Z,11.90
2018-01-27T10:52:21.430Z,13.03
2018-01-27T10:54:49.090Z,12.33
2018-01-27T10:57:16.873Z,12.80
2018-01-27T10:59:44.582Z,12.10
2018-01-27T11:02:12.300Z,12.30
2018-01-27T11:04:39.955Z,11.77
2018-01-27T11:07:07.627Z,14.10
2018-01-27T11:09:35.298Z,12.07
2018-01-27T11:12:02.978Z,12.17
2018-01-27T11:14:31.410Z,12.63
2018-01-27T11:16:59.105Z,10.17
2018-01-27T11:19:26.816Z,9.83
2018-01-27T11:21:54.487Z,9.90
2018-01-27T11:24:22.123Z,9.40
2018-01-27T11:26:49.790Z,8.37
2018-01-27T11:29:17.473Z,8.17
2018-01-27T11:31:45.933Z,8.70
2018-01-27T11:34:13.619Z,8.37
2018-01-27T11:36:41.306Z,8.73
2018-01-27T11:39:08.997Z,8.83
2018-01-27T11:41:36.666Z,8.87
2018-01-27T11:44:04.355Z,8.77
2018-01-27T11:46:31.999Z,10.10
2018-01-27T11:48:59.680Z,9.07
2018-01-27T11:51:27.718Z,9.23
2018-01-27T11:53:55.408Z,9.23
2018-01-27T11:56:23.180Z,10.30
2018-01-27T11:58:51.453Z,9.90
2018-01-27T12:01:19.130Z,10.77
2018-01-27T12:03:46.784Z,10.03
2018-01-27T12:06:14.485Z,10.00
2018-01-27T12:08:42.946Z,10.73
2018-01-27T12:11:10.647Z,11.37
2018-01-27T12:13:38.349Z,11.03
2018-01-27T12:16:06.043Z,10.30
2018-01-27T12:18:34.487Z,11.33
2018-01-27T12:21:02.151Z,12.07
2018-01-27T12:23:29.825Z,12.47
2018-01-27T12:25:57.531Z,11.87
2018-01-27T12:28:25.187Z,14.70
2018-01-27T12:30:52.853Z,12.37
2018-01-27T12:33:20.542Z,11.33
2018-01-27T12:35:48.290Z,11.33
2018-01-27T12:38:16.017Z,12.33
2018-01-27T12:40:43.668Z,10.73
2018-01-27T12:43:12.107Z,13.70
2018-01-27T12:45:39.860Z,10.90
2018-01-27T12:48:07.520Z,12.03
2018-01-27T12:50:35.247Z,10.90
2018-01-27T12:53:02.945Z,10.60
2018-01-27T12:55:30.632Z,11.10
2018-01-27T12:57:58.306Z,12.60
2018-01-27T13:00:26.023Z,11.63
2018-01-27T13:02:53.804Z,11.63
2018-01-27T13:05:21.537Z,11.30
2018-01-27T13:07:49.255Z,11.30
2018-01-27T13:10:16.955Z,11.00
2018-01-27T13:12:44.650Z,11.07
2018-01-27T13:15:12.387Z,10.10
2018-01-27T13:17:40.132Z,9.73
2018-01-27T13:20:07.867Z,10.07
2018-01-27T13:22:35.621Z,11.10
2018-01-27T13:25:03.351Z,9.17
2018-01-27T13:27:31.072Z,9.77
2018-01-27T13:29:59.553Z,9.90
2018-01-27T13:32:28.002Z,10.50
2018-01-27T13:34:55.725Z,10.30
2018-01-27T13:37:23.478Z,11.10
2018-01-27T13:39:51.209Z,10.00
2018-01-27T13:42:19.677Z,10.83
2018-01-27T13:44:47.406Z,10.37
2018-01-27T13:47:15.144Z,10.40
2018-01-27T13:49:42.857Z,10.10
2018-01-27T13:52:10.569Z,9.70
2018-01-27T13:54:39.113Z,11.00
2018-01-27T13:57:07.647Z,10.73
2018-01-27T13:59:35.366Z,12.13
2018-01-27T14:02:03.912Z,12.80
2018-01-27T14:04:31.663Z,11.90
2018-01-27T14:06:59.416Z,11.17
2018-01-27T14:09:27.129Z,12.30
2018-01-27T14:11:55.610Z,11.93
2018-01-27T14:14:24.138Z,11.33
2018-01-27T14:16:51.851Z,10.03
2018-01-27T14:19:20.312Z,11.47
2018-01-27T14:21:47.988Z,11.30
2018-01-27T14:24:16.439Z,10.90
2018-01-27T14:26:44.157Z,13.10
2018-01-27T14:29:11.841Z,12.03
2018-01-27T14:31:39.542Z,10.20
2018-01-27T14:34:07.398Z,12.70
2018-01-27T14:36:39.053Z,10.93
2018-01-27T14:39:06.760Z,10.70
2018-01-27T14:41:35.037Z,10.93
2018-01-27T14:44:02.822Z,11.67
2018-01-27T14:46:30.527Z,11.33
2018-01-27T14:48:58.983Z,11.00
2018-01-27T14:51:26.779Z,12.10
2018-01-27T14:53:55.307Z,11.40
2018-01-27T14:56:23.071Z,12.30
2018-01-27T14:58:50.829Z,10.53
2018-01-27T15:01:18.574Z,10.20
2018-01-27T15:03:46.244Z,11.17
2018-01-27T15:06:13.901Z,10.17
2018-01-27T15:08:41.556Z,9.27
2018-01-27T15:11:09.243Z,8.77
2018-01-27T15:13:36.915Z,9.43
2018-01-27T15:16:04.587Z,9.80
2018-01-27T15:18:32.248Z,8.87
2018-01-27T15:20:59.931Z,10.37
2018-01-27T15:23:28.393Z,8.43
2018-01-27T15:25:56.086Z,10.00
2018-01-27T15:28:23.808Z,9.27
2018-01-27T15:30:51.596Z,8.80
2018-01-27T15:33:20.091Z,9.70
2018-01-27T15:35:47.787Z,9.73
2018-01-27T15:38:16.158Z,8.70
2018-01-27T15:40:43.871Z,9.93
2018-01-27T15:43:12.338Z,10.87
2018-01-27T15:45:40.093Z,9.40
2018-01-27T15:48:07.789Z,9.10
2018-01-27T15:50:36.209Z,9.30
2018-01-27T15:53:04.642Z,9.90
2018-01-27T15:55:33.116Z,9.67
2018-01-27T15:58:01.552Z,8.90
2018-01-27T16:00:29.234Z,9.37
2018-01-27T16:02:56.905Z,11.03
2018-01-27T16:05:24.599Z,12.30
2018-01-27T16:07:52.269Z,11.90
2018-01-27T16:10:19.939Z,8.93
2018-01-27T16:12:47.610Z,10.67
2018-01-27T16:15:15.302Z,11.50
2018-01-27T16:17:43.081Z,12.20
2018-01-27T16:20:11.509Z,11.50
2018-01-27T16:22:39.246Z,10.03
2018-01-27T16:25:06.924Z,8.67
2018-01-27T16:27:34.616Z,8.47
2018-01-27T16:30:02.313Z,8.30
2018-01-27T16:32:30.822Z,7.50
2018-01-27T16:34:58.566Z,7.20
2018-01-27T16:37:26.300Z,7.23
2018-01-27T16:39:54.033Z,8.90
2018-01-27T16:42:21.723Z,7.80
2018-01-27T16:44:49.437Z,7.67
2018-01-27T16:47:17.149Z,9.07
2018-01-27T16:49:44.858Z,8.53
2018-01-27T16:52:12.527Z,8.83
2018-01-27T16:54:40.229Z,9.10
2018-01-27T16:57:07.930Z,8.00
2018-01-27T16:59:35.624Z,8.20
2018-01-27T17:02:03.729Z,8.30
2018-01-27T17:04:32.193Z,8.33
2018-01-27T17:06:59.888Z,8.43
2018-01-27T17:09:28.350Z,7.60
2018-01-27T17:11:56.841Z,7.67
2018-01-27T17:14:25.333Z,8.30
2018-01-27T17:16:53.135Z,8.33
2018-01-27T17:19:20.858Z,8.20
2018-01-27T17:21:48.555Z,8.27
2018-01-27T17:24:16.230Z,8.00
2018-01-27T17:26:43.931Z,8.20
2018-01-27T17:29:12.419Z,8.30
2018-01-27T17:31:40.118Z,8.23
2018-01-27T17:34:07.881Z,10.33
2018-01-27T17:36:36.480Z,9.60
2018-01-27T17:39:04.289Z,9.20
2018-01-27T17:41:32.198Z,7.87
2018-01-27T17:43:59.913Z,7.97
2018-01-27T17:46:27.635Z,11.83
2018-01-27T17:48:55.388Z,10.67
2018-01-27T17:51:23.122Z,9.13
2018-01-27T17:53:50.868Z,9.20
2018-01-27T17:56:18.574Z,9.03
2018-01-27T17:58:46.422Z,8.40
2018-01-27T18:01:14.194Z,8.27
2018-01-27T18:03:42.244Z,11.50
2018-01-27T18:06:09.991Z,10.73
2018-01-27T18:08:37.690Z,10.90
2018-01-27T18:11:05.405Z,11.00
2018-01-27T18:13:33.899Z,10.87
2018-01-27T18:16:02.708Z,10.03
2018-01-27T18:18:30.464Z,9.40
2018-01-27T18:20:58.200Z,8.20
2018-01-27T18:23:26.749Z,7.93
2018-01-27T18:25:54.476Z,9.40
2018-01-27T18:28:22.204Z,8.97
2018-01-27T18:30:50.830Z,9.67
2018-01-27T18:33:18.647Z,9.67
2018-01-27T18:35:47.138Z,9.80
2018-01-27T18:38:14.854Z,9.53
2018-01-27T18:40:42.577Z,9.23
2018-01-27T18:43:10.301Z,8.57
2018-01-27T18:45:37.973Z,8.57
2018-01-27T18:48:06.423Z,8.90
2018-01-27T18:50:34.104Z,9.80
2018-01-27T18:53:02.562Z,9.83
2018-01-27T18:55:30.249Z,8.63
2018-01-27T18:57:58.717Z,9.20
2018-01-27T19:00:26.415Z,8.70
2018-01-27T19:02:54.099Z,9.87
2018-01-27T19:05:22.295Z,9.20
2018-01-27T19:07:49.934Z,9.90
2018-01-27T19:10:17.610Z,9.83
2018-01-27T19:12:45.291Z,10.30
2018-01-27T19:15:12.970Z,9.70
2018-01-27T19:17:41.400Z,9.80
2018-01-27T19:20:09.078Z,9.67
2018-01-27T19:22:36.735Z,10.13
2018-01-27T19:25:04.405Z,10.73
2018-01-27T19:27:32.049Z,9.83
2018-01-27T19:29:59.721Z,9.73
2018-01-27T19:32:27.409Z,10.27
2018-01-27T19:34:55.888Z,9.17
2018-01-27T19:37:24.307Z,10.70
2018-01-27T19:39:52.028Z,9.87
2018-01-27T19:42:20.466Z,9.43
2018-01-27T19:44:48.184Z,10.03
2018-01-27T19:47:15.839Z,9.63
2018-01-27T19:49:44.343Z,11.47
2018-01-27T19:52:12.064Z,12.07
2018-01-27T19:54:39.719Z,13.77
2018-01-27T19:57:07.410Z,14.60
2018-01-27T19:59:35.087Z,13.50
2018-01-27T20:02:02.905Z,13.63
2018-01-27T20:04:30.585Z,13.57
2018-01-27T20:06:59.017Z,12.70
2018-01-27T20:09:26.736Z,12.40
2018-01-27T20:11:54.422Z,12.37
2018-01-27T20:14:22.098Z,12.70
2018-01-27T20:16:49.767Z,13.67
2018-01-27T20:19:17.471Z,12.87
2018-01-27T20:21:46.045Z,12.87
2018-01-27T20:24:14.462Z,13.73
2018-01-27T20:26:42.150Z,13.63
2018-01-27T20:29:09.809Z,13.57
2018-01-27T20:31:37.498Z,13.93
2018-01-27T20:34:05.931Z,13.93
2018-01-27T20:36:33.652Z,13.43
2018-01-27T20:39:02.093Z,13.67
2018-01-27T20:41:29.770Z,13.90
2018-01-27T20:43:57.430Z,14.47
2018-01-27T20:46:25.148Z,14.30
2018-01-27T20:48:52.893Z,14.90
2018-01-27T20:51:21.397Z,14.93
2018-01-27T20:53:49.117Z,14.13
2018-01-27T20:56:17.646Z,15.00
2018-01-27T20:58:45.345Z,16.33
2018-01-27T21:01:13.092Z,15.20
2018-01-27T21:03:40.797Z,14.70
2018-01-27T21:06:09.311Z,14.80
2018-01-27T21:08:37.016Z,16.20
2018-01-27T21:11:05.453Z,15.17
2018-01-27T21:13:33.318Z,15.17
2018-01-27T21:16:01.027Z,15.73
2018-01-27T21:18:29.467Z,15.90
2018-01-27T21:20:57.169Z,16.00
2018-01-27T21:23:25.571Z,14.90
2018-01-27T21:25:53.298Z,15.20
2018-01-27T21:28:21.912Z,15.13
2018-01-27T21:30:49.629Z,15.53
2018-01-27T21:33:17.381Z,15.33
2018-01-27T21:35:45.046Z,16.10
2018-01-27T21:38:12.683Z,15.03
2018-01-27T21:40:40.357Z,15.10
2018-01-27T21:43:08.108Z,15.00
2018-01-27T21:45:35.782Z,14.97
2018-01-27T21:48:03.482Z,14.90
2018-01-27T21:50:32.015Z,14.53
2018-01-27T21:52:59.671Z,15.00
2018-01-27T21:55:27.310Z,14.87
2018-01-27T21:57:54.997Z,15.10
2018-01-27T22:00:22.646Z,15.37
2018-01-27T22:02:50.292Z,15.47
2018-01-27T22:05:17.952Z,14.80
2018-01-27T22:07:45.604Z,15.07
2018-01-27T22:10:13.323Z,16.60
2018-01-27T22:12:41.010Z,15.53
2018-01-27T22:15:09.433Z,16.73
2018-01-27T22:17:37.202Z,15.60
2018-01-27T22:20:04.873Z,15.77
2018-01-27T22:22:32.595Z,16.57
2018-01-27T22:25:00.256Z,16.10
2018-01-27T22:27:27.894Z,15.80
2018-01-27T22:29:56.328Z,16.40
2018-01-27T22:32:23.988Z,16.07
2018-01-27T22:34:51.622Z,15.47
2018-01-27T22:37:19.334Z,15.83
2018-01-27T22:39:46.984Z,16.40
2018-01-27T22:42:14.634Z,15.07
2018-01-27T22:44:42.307Z,15.50
2018-01-27T22:47:10.014Z,14.90
2018-01-27T22:49:37.722Z,16.23
2018-01-27T22:52:05.380Z,15.83
2018-01-27T22:54:33.028Z,15.27
2018-01-27T22:57:00.666Z,15.13
2018-01-27T22:59:28.318Z,15.67
2018-01-27T23:01:55.989Z,16.07
2018-01-27T23:04:24.446Z,15.63
2018-01-27T23:06:52.165Z,15.27
2018-01-27T23:09:19.869Z,16.03
2018-01-27T23:11:47.568Z,15.37
2018-01-27T23:14:15.223Z,15.37
2018-01-27T23:16:42.956Z,16.07
2018-01-27T23:19:10.752Z,15.43
2018-01-27T23:21:39.155Z,15.30
2018-01-27T23:24:06.817Z,15.03
2018-01-27T23:26:34.512Z,13.97
2018-01-27T23:29:02.175Z,13.30
2018-01-27T23:31:29.906Z,13.20
2018-01-27T23:33:57.618Z,12.87
2018-01-27T23:36:25.265Z,12.93
2018-01-27T23:38:52.918Z,13.50
2018-01-27T23:41:20.567Z,13.10
2018-01-27T23:43:48.214Z,13.73
2018-01-27T23:46:15.897Z,12.60
2018-01-27T23:48:43.549Z,13.27
2018-01-27T23:51:11.203Z,13.50
2018-01-27T23:53:38.835Z,13.63
2018-01-27T23:56:06.482Z,14.23
2018-01-27T23:58:34.122Z,12.50
